Time;durP1;ratioP1;P1;durP2;ratioP2;P2;SDS_P1;SDS_P2;PMS_P1;PMS_P2;Temp;Humidity;BMP_temperature;BMP_pressure;BME280_temperature;BME280_humidity;BME280_pressure;Samples;Min_cycle;Max_cycle;Signal;HPM_P1;HPM_P2
2021/10/02 00:35:50;;;;;;;13.47;12.33;;;12.90;99.90;;;;;;5060251;28;20702;-76
2021/10/02 00:41:21;;;;;;;13.03;12.03;;;12.80;99.90;;;;;;5056268;28;20237;-76
2021/10/02 00:46:33;;;;;;;13.87;12.77;;;12.80;99.90;;;;;;5062664;28;20216;-77
2021/10/02 00:49:00;;;;;;;14.40;13.20;;;12.80;99.90;;;;;;5062686;28;20266;-76
2021/10/02 00:51:28;;;;;;;14.63;13.40;;;12.80;99.90;;;;;;5062103;28;20199;-77
2021/10/02 00:53:55;;;;;;;14.23;13.03;;;12.80;99.90;;;;;;5062895;28;20773;-77
2021/10/02 00:56:21;;;;;;;14.67;13.37;;;12.70;99.90;;;;;;5063703;28;20239;-77
2021/10/02 00:58:50;;;;;;;14.93;13.73;;;12.70;99.90;;;;;;5060411;28;20609;-76
2021/10/02 01:01:23;;;;;;;14.33;13.03;;;12.70;99.90;;;;;;5065675;28;20277;-76
2021/10/02 01:04:00;;;;;;;15.40;14.10;;;12.60;99.90;;;;;;5055823;28;20224;-76
2021/10/02 01:06:46;;;;;;;14.20;13.00;;;12.50;99.90;;;;;;5056846;28;20624;-77
2021/10/02 01:09:29;;;;;;;14.00;12.80;;;12.50;99.90;;;;;;5054823;28;20194;-76
2021/10/02 01:12:03;;;;;;;13.87;12.77;;;12.40;99.90;;;;;;5057277;28;20191;-76
2021/10/02 01:14:44;;;;;;;14.17;12.97;;;12.40;99.90;;;;;;5062706;28;20199;-77
2021/10/02 01:17:19;;;;;;;13.47;12.30;;;12.40;99.90;;;;;;5059673;28;20203;-76
2021/10/02 01:20:01;;;;;;;13.40;12.27;;;12.40;99.90;;;;;;5054270;28;20673;-76
2021/10/02 01:23:04;;;;;;;14.13;13.03;;;12.40;99.90;;;;;;5057731;28;20224;-76
2021/10/02 01:25:52;;;;;;;14.03;12.83;;;12.40;99.90;;;;;;5000248;28;20471;-77
2021/10/02 01:28:22;;;;;;;14.67;13.47;;;12.40;99.90;;;;;;5051298;28;20200;-77
2021/10/02 01:31:06;;;;;;;13.07;12.07;;;12.40;99.90;;;;;;5059763;28;20190;-77
2021/10/02 01:33:41;;;;;;;12.77;11.77;;;12.40;99.90;;;;;;5062417;28;20248;-77
2021/10/02 01:47:16;;;;;;;12.00;11.07;;;12.40;99.90;;;;;;5053556;28;20214;-76
2021/10/02 01:49:46;;;;;;;12.10;11.20;;;12.40;99.90;;;;;;5060734;28;20215;-75
2021/10/02 01:52:15;;;;;;;11.83;10.93;;;12.40;99.90;;;;;;5058319;28;20225;-76
2021/10/02 01:54:45;;;;;;;12.20;11.30;;;12.40;99.90;;;;;;5064276;28;20207;-76
2021/10/02 01:57:12;;;;;;;12.53;11.60;;;12.40;99.90;;;;;;5059495;28;20204;-76
2021/10/02 01:59:42;;;;;;;12.93;11.93;;;12.40;99.90;;;;;;5056158;28;20244;-76
2021/10/02 02:02:11;;;;;;;12.10;11.10;;;12.40;99.90;;;;;;5061822;28;20281;-77
2021/10/02 02:04:41;;;;;;;12.33;11.33;;;12.40;99.90;;;;;;5056829;28;20555;-76
2021/10/02 02:07:09;;;;;;;12.10;11.20;;;12.40;99.90;;;;;;5057855;28;20633;-77
2021/10/02 02:09:40;;;;;;;12.40;11.40;;;12.40;99.90;;;;;;5059478;28;20195;-76
2021/10/02 02:12:10;;;;;;;13.13;12.13;;;12.50;99.90;;;;;;5058094;28;20267;-76
2021/10/02 02:14:39;;;;;;;12.80;11.80;;;12.40;99.90;;;;;;5059497;28;20214;-76
2021/10/02 02:17:09;;;;;;;13.27;12.27;;;12.40;99.90;;;;;;5058148;28;20224;-76
2021/10/02 02:19:36;;;;;;;13.23;12.13;;;12.30;99.90;;;;;;5063093;28;20722;-76
2021/10/02 02:22:05;;;;;;;14.10;12.90;;;12.30;99.90;;;;;;5062293;28;20209;-76
2021/10/02 02:24:33;;;;;;;12.90;11.77;;;12.30;99.90;;;;;;5060309;28;20689;-76
2021/10/02 02:27:01;;;;;;;13.23;12.23;;;12.20;99.90;;;;;;5058079;28;20278;-77
2021/10/02 02:29:31;;;;;;;10.10;7.37;;;12.20;99.90;;;;;;5048236;28;20550;-76
2021/10/02 02:31:58;;;;;;;7.50;5.93;;;12.20;99.90;;;;;;5062621;28;20255;-75
2021/10/02 02:34:28;;;;;;;9.03;7.30;;;12.10;99.90;;;;;;5059685;28;20634;-76
2021/10/02 02:36:55;;;;;;;7.17;6.40;;;12.10;99.90;;;;;;5062739;28;20273;-76
2021/10/02 02:39:22;;;;;;;8.37;6.10;;;12.10;99.90;;;;;;5062796;28;20206;-76
2021/10/02 02:41:48;;;;;;;6.93;5.83;;;12.20;99.90;;;;;;5063330;28;20200;-76
2021/10/02 02:44:15;;;;;;;7.97;6.43;;;12.10;99.90;;;;;;5055957;28;20290;-77
2021/10/02 02:46:42;;;;;;;8.57;6.47;;;12.20;99.90;;;;;;5046636;28;20782;-77
2021/10/02 02:49:15;;;;;;;6.73;6.03;;;12.20;99.90;;;;;;5040025;28;20201;-76
2021/10/02 02:51:59;;;;;;;7.87;6.40;;;12.20;99.90;;;;;;5057113;28;20202;-79
2021/10/02 02:54:31;;;;;;;9.77;6.53;;;12.20;99.90;;;;;;5051042;28;20242;-76
2021/10/02 02:57:06;;;;;;;7.73;6.03;;;12.20;99.90;;;;;;5053983;28;20279;-76
2021/10/02 02:59:38;;;;;;;7.10;6.13;;;12.20;99.90;;;;;;5046174;28;20243;-76
2021/10/02 03:02:07;;;;;;;8.17;6.10;;;12.30;99.90;;;;;;5051855;28;20379;-76
2021/10/02 03:04:35;;;;;;;12.00;11.00;;;12.30;99.90;;;;;;5040050;28;20200;-77
2021/10/02 03:07:06;;;;;;;7.30;6.50;;;12.30;99.90;;;;;;5047376;28;20273;-76
2021/10/02 03:09:38;;;;;;;6.47;5.40;;;12.30;99.90;;;;;;5061743;28;20283;-76
2021/10/02 03:12:06;;;;;;;6.10;5.00;;;12.30;99.90;;;;;;5077139;28;20240;-76
2021/10/02 03:14:35;;;;;;;7.50;5.97;;;12.30;99.90;;;;;;5058256;28;20196;-76
2021/10/02 03:17:03;;;;;;;6.67;5.40;;;12.20;99.90;;;;;;5050087;28;20188;-76
2021/10/02 03:19:31;;;;;;;8.80;5.93;;;12.20;99.90;;;;;;5051099;28;20273;-76
2021/10/02 03:21:59;;;;;;;6.77;5.60;;;12.20;99.90;;;;;;5054392;28;20200;-76
2021/10/02 03:24:28;;;;;;;7.00;5.60;;;12.10;99.90;;;;;;5055889;28;20212;-77
2021/10/02 03:27:01;;;;;;;7.40;6.07;;;12.00;99.90;;;;;;5046025;28;20225;-76
2021/10/02 03:29:29;;;;;;;6.87;5.47;;;12.00;99.90;;;;;;5052232;28;20268;-76
2021/10/02 03:31:56;;;;;;;6.47;5.07;;;11.90;99.90;;;;;;5054405;28;20251;-76
2021/10/02 03:34:23;;;;;;;6.10;5.37;;;11.90;99.90;;;;;;5055943;28;20193;-77
2021/10/02 03:36:51;;;;;;;7.87;6.40;;;11.80;99.90;;;;;;5057918;28;20200;-76
2021/10/02 03:39:18;;;;;;;7.57;6.50;;;11.80;99.90;;;;;;5059694;28;20202;-77
2021/10/02 03:42:04;;;;;;;6.87;5.90;;;11.70;99.90;;;;;;5064216;28;20936;-76
2021/10/02 03:44:30;;;;;;;7.37;6.57;;;11.70;99.90;;;;;;5068878;28;20202;-76
2021/10/02 03:46:57;;;;;;;9.20;7.37;;;11.70;99.90;;;;;;5057896;28;20209;-76
2021/10/02 03:49:24;;;;;;;8.70;7.47;;;11.60;99.90;;;;;;5062617;28;20278;-77
2021/10/02 03:51:51;;;;;;;10.23;7.33;;;11.60;99.90;;;;;;5047151;28;20262;-77
2021/10/02 03:54:18;;;;;;;12.13;10.97;;;11.60;99.90;;;;;;5048671;28;20739;-77
2021/10/02 03:56:46;;;;;;;8.80;7.03;;;11.60;99.90;;;;;;5054074;28;20639;-77
2021/10/02 03:59:13;;;;;;;9.40;7.80;;;11.60;99.90;;;;;;5052658;28;20258;-77
2021/10/02 04:01:40;;;;;;;9.93;7.77;;;11.60;99.90;;;;;;5056654;28;20571;-77
2021/10/02 04:04:06;;;;;;;9.07;7.33;;;11.50;99.90;;;;;;5064208;28;20290;-77
2021/10/02 04:06:33;;;;;;;8.63;6.90;;;11.50;99.90;;;;;;5059705;28;20220;-77
2021/10/02 04:09:00;;;;;;;9.40;8.30;;;11.40;99.90;;;;;;5057940;28;20194;-77
2021/10/02 04:11:27;;;;;;;9.00;7.40;;;11.50;99.90;;;;;;5060477;28;20269;-76
2021/10/02 04:13:55;;;;;;;8.50;6.40;;;11.50;99.90;;;;;;5062960;28;20298;-76
2021/10/02 04:16:22;;;;;;;7.40;6.37;;;11.40;99.90;;;;;;5058232;28;20252;-76
2021/10/02 04:18:49;;;;;;;9.83;7.27;;;11.40;99.90;;;;;;5079426;28;20199;-76
2021/10/02 04:21:16;;;;;;;10.57;8.37;;;11.40;99.90;;;;;;5065209;28;20198;-76
2021/10/02 04:23:43;;;;;;;9.37;7.57;;;11.30;99.90;;;;;;5061506;28;20222;-76
2021/10/02 04:26:10;;;;;;;9.57;7.47;;;11.20;99.90;;;;;;5064892;28;20198;-76
2021/10/02 04:28:37;;;;;;;9.97;7.33;;;11.20;99.90;;;;;;5063730;28;20191;-76
2021/10/02 04:31:05;;;;;;;9.00;7.60;;;11.20;99.90;;;;;;5058415;28;20202;-77
2021/10/02 04:33:32;;;;;;;9.77;8.57;;;11.20;99.90;;;;;;5060444;28;20214;-76
2021/10/02 04:35:59;;;;;;;9.43;7.53;;;11.10;99.90;;;;;;5059139;28;20195;-76
2021/10/02 04:38:26;;;;;;;8.20;6.90;;;11.20;99.90;;;;;;5057773;28;20610;-76
2021/10/02 04:40:54;;;;;;;9.17;7.23;;;11.10;99.90;;;;;;5060044;28;20663;-76
2021/10/02 04:43:21;;;;;;;8.27;6.80;;;11.20;99.90;;;;;;5064042;28;20242;-75
2021/10/02 04:45:48;;;;;;;7.50;6.70;;;11.20;99.90;;;;;;5061348;28;20693;-76
2021/10/02 04:48:16;;;;;;;8.37;6.90;;;11.20;99.90;;;;;;5058123;28;20268;-76
2021/10/02 04:50:43;;;;;;;12.63;11.47;;;11.30;99.90;;;;;;5066588;28;20211;-76
2021/10/02 04:53:10;;;;;;;14.27;13.17;;;11.30;99.90;;;;;;5057036;28;20215;-76
2021/10/02 04:55:39;;;;;;;14.50;13.33;;;11.30;99.90;;;;;;5063534;28;20207;-76
2021/10/02 04:58:06;;;;;;;10.00;9.00;;;11.30;99.90;;;;;;5055894;28;20183;-76
2021/10/02 05:00:33;;;;;;;8.47;6.73;;;11.30;99.90;;;;;;5058732;28;20260;-76
2021/10/02 05:03:01;;;;;;;8.93;8.03;;;11.30;99.90;;;;;;5060791;28;20220;-76
2021/10/02 05:05:30;;;;;;;7.77;6.63;;;11.20;99.90;;;;;;5061679;28;20622;-76
2021/10/02 05:07:56;;;;;;;8.77;7.30;;;11.20;99.90;;;;;;5055321;28;20566;-76
2021/10/02 05:10:23;;;;;;;8.60;7.23;;;11.10;99.90;;;;;;5061237;28;20202;-78
2021/10/02 05:12:50;;;;;;;8.63;7.20;;;11.10;99.90;;;;;;5047002;28;20575;-75
2021/10/02 05:15:17;;;;;;;8.60;7.13;;;11.20;99.90;;;;;;5051502;28;20245;-76
2021/10/02 05:17:44;;;;;;;11.20;10.10;;;11.10;99.90;;;;;;5054331;28;20249;-78
2021/10/02 05:20:11;;;;;;;11.20;10.00;;;11.10;99.90;;;;;;5056538;28;20195;-76
2021/10/02 05:22:39;;;;;;;10.07;9.17;;;11.20;99.90;;;;;;5062694;28;20269;-75
2021/10/02 05:25:09;;;;;;;8.20;7.03;;;11.20;99.90;;;;;;5057695;28;20199;-76
2021/10/02 05:27:36;;;;;;;8.90;6.80;;;11.20;99.90;;;;;;5053474;28;20216;-75
2021/10/02 05:30:04;;;;;;;9.10;7.40;;;11.20;99.90;;;;;;5050799;28;21053;-76
2021/10/02 05:32:31;;;;;;;10.03;7.23;;;11.10;99.90;;;;;;5051182;28;20223;-76
2021/10/02 05:34:57;;;;;;;8.30;6.93;;;11.10;99.90;;;;;;5051384;28;20616;-76
2021/10/02 05:37:24;;;;;;;9.27;7.53;;;11.10;99.90;;;;;;5049936;28;20192;-76
2021/10/02 05:39:52;;;;;;;8.93;7.57;;;11.10;99.90;;;;;;5052455;28;20726;-76
2021/10/02 05:42:19;;;;;;;13.27;11.63;;;11.10;99.90;;;;;;5064856;28;20269;-76
2021/10/02 05:44:46;;;;;;;8.73;7.77;;;11.10;99.90;;;;;;5056473;28;20204;-76
2021/10/02 05:47:13;;;;;;;10.10;7.20;;;11.10;99.90;;;;;;5054481;28;20687;-76
2021/10/02 05:49:41;;;;;;;10.07;7.40;;;11.20;99.90;;;;;;5050636;28;20205;-76
2021/10/02 05:52:09;;;;;;;9.13;7.60;;;11.20;99.90;;;;;;5056667;28;20219;-75
2021/10/02 05:54:36;;;;;;;10.20;8.50;;;11.40;99.90;;;;;;5055369;28;20264;-75
2021/10/02 05:57:04;;;;;;;8.77;7.77;;;11.50;99.90;;;;;;5050912;28;20245;-76
2021/10/02 05:59:31;;;;;;;9.73;8.80;;;11.60;99.90;;;;;;5048041;28;20192;-75
2021/10/02 06:01:58;;;;;;;8.93;7.50;;;11.70;99.90;;;;;;5047884;28;20225;-77
2021/10/02 06:04:25;;;;;;;9.43;7.73;;;11.80;99.90;;;;;;5049857;28;20200;-77
2021/10/02 06:06:52;;;;;;;9.53;7.83;;;11.90;99.90;;;;;;5051761;28;20560;-75
2021/10/02 06:09:19;;;;;;;9.17;7.40;;;12.10;99.90;;;;;;5048841;28;20224;-76
2021/10/02 06:11:46;;;;;;;8.20;6.83;;;12.30;99.90;;;;;;5050946;28;20264;-75
2021/10/02 06:14:14;;;;;;;7.13;6.10;;;12.50;99.90;;;;;;5070435;28;20289;-75
2021/10/02 06:16:41;;;;;;;10.37;9.37;;;12.70;99.90;;;;;;5045944;28;20201;-79
2021/10/02 06:19:08;;;;;;;9.97;9.07;;;12.90;99.90;;;;;;5051529;28;20200;-76
2021/10/02 06:21:36;;;;;;;7.00;5.70;;;13.00;99.90;;;;;;5051709;28;20283;-77
2021/10/02 06:24:06;;;;;;;12.70;11.70;;;13.10;99.90;;;;;;5071508;28;20226;-76
2021/10/02 06:26:36;;;;;;;10.30;6.40;;;13.20;99.90;;;;;;5055021;28;20231;-76
2021/10/02 06:29:03;;;;;;;8.03;7.30;;;13.30;99.90;;;;;;5054212;28;20222;-77
2021/10/02 06:31:32;;;;;;;7.83;7.03;;;13.40;99.90;;;;;;5045267;28;20260;-77
2021/10/02 06:33:58;;;;;;;9.83;8.97;;;13.40;99.90;;;;;;5050818;28;20280;-77
2021/10/02 06:36:26;;;;;;;8.50;7.80;;;13.50;99.90;;;;;;5051176;28;20247;-77
2021/10/02 06:38:53;;;;;;;6.83;6.23;;;13.60;99.90;;;;;;5053921;28;20274;-76
2021/10/02 06:41:20;;;;;;;10.83;9.93;;;13.60;99.90;;;;;;5054857;28;20286;-77
2021/10/02 06:43:47;;;;;;;6.60;6.00;;;13.60;99.90;;;;;;5047225;28;20219;-77
2021/10/02 06:46:14;;;;;;;13.23;12.33;;;13.50;99.90;;;;;;5059602;28;20268;-77
2021/10/02 06:48:42;;;;;;;13.90;12.90;;;13.50;99.90;;;;;;5035343;28;20344;-77
2021/10/02 06:51:09;;;;;;;13.63;12.63;;;13.40;99.90;;;;;;5037372;28;20255;-76
2021/10/02 06:53:36;;;;;;;13.33;12.20;;;13.40;99.90;;;;;;5053483;28;20214;-77
2021/10/02 06:56:04;;;;;;;13.77;12.67;;;13.40;99.90;;;;;;5056261;28;20196;-78
2021/10/02 06:58:31;;;;;;;12.47;11.47;;;13.40;99.90;;;;;;5055009;28;20198;-77
2021/10/02 07:00:58;;;;;;;14.87;13.77;;;13.50;99.90;;;;;;5053614;28;20245;-77
2021/10/02 07:03:25;;;;;;;14.27;13.07;;;13.50;99.90;;;;;;5053632;28;20211;-77
2021/10/02 07:05:53;;;;;;;14.67;13.23;;;13.50;99.90;;;;;;5050383;28;20737;-75
2021/10/02 07:08:20;;;;;;;13.60;12.33;;;13.60;99.90;;;;;;5036971;28;20234;-78
2021/10/02 07:10:46;;;;;;;9.53;8.73;;;13.70;99.90;;;;;;5053463;28;20201;-77
2021/10/02 07:13:14;;;;;;;11.23;10.23;;;13.90;99.90;;;;;;5051866;28;20227;-76
2021/10/02 07:15:40;;;;;;;7.07;6.37;;;14.00;99.90;;;;;;5055697;28;20654;-77
2021/10/02 07:18:08;;;;;;;6.67;5.77;;;14.20;99.90;;;;;;5051110;28;20212;-77
2021/10/02 07:20:35;;;;;;;7.57;6.00;;;14.40;99.90;;;;;;5031030;28;20203;-77
2021/10/02 07:23:03;;;;;;;7.20;5.93;;;14.50;99.90;;;;;;5043195;28;20624;-78
2021/10/02 07:25:29;;;;;;;7.40;6.33;;;14.60;99.90;;;;;;5047689;28;20539;-78
2021/10/02 07:27:56;;;;;;;13.90;12.90;;;14.80;99.90;;;;;;5052017;28;20273;-77
2021/10/02 07:30:23;;;;;;;6.80;6.10;;;15.00;99.90;;;;;;5065311;28;20204;-77
2021/10/02 07:32:50;;;;;;;13.73;12.63;;;15.10;99.90;;;;;;5049258;28;20275;-77
2021/10/02 07:35:23;;;;;;;8.20;6.43;;;15.30;99.90;;;;;;5062775;28;20247;-77
2021/10/02 07:37:50;;;;;;;9.00;8.10;;;15.30;99.90;;;;;;5064601;28;20620;-78
2021/10/02 07:40:19;;;;;;;13.87;12.70;;;15.30;99.90;;;;;;5049778;28;20226;-78
2021/10/02 07:42:52;;;;;;;13.37;12.03;;;15.20;99.90;;;;;;5064869;28;20303;-78
2021/10/02 07:45:21;;;;;;;10.20;6.70;;;15.10;99.90;;;;;;5064618;28;20215;-77
2021/10/02 07:47:50;;;;;;;7.37;6.07;;;15.10;99.90;;;;;;5065852;28;20687;-77
2021/10/02 07:50:17;;;;;;;7.57;6.73;;;15.10;99.90;;;;;;5051327;28;20201;-77
2021/10/02 07:52:44;;;;;;;7.90;6.77;;;15.10;99.90;;;;;;5054871;28;20638;-78
2021/10/02 07:55:14;;;;;;;11.47;9.07;;;15.40;99.90;;;;;;5055475;28;20200;-77
2021/10/02 07:57:45;;;;;;;13.77;12.67;;;16.00;99.90;;;;;;5055712;28;20660;-76
2021/10/02 08:00:14;;;;;;;12.93;11.87;;;16.60;99.90;;;;;;5054451;28;20733;-79
2021/10/02 08:02:43;;;;;;;8.17;7.17;;;17.10;99.90;;;;;;5054501;28;20277;-78
2021/10/02 08:05:10;;;;;;;7.73;7.00;;;17.50;99.90;;;;;;5051591;28;20198;-78
2021/10/02 08:07:39;;;;;;;11.03;10.13;;;17.90;99.90;;;;;;5055170;28;20213;-78
2021/10/02 08:10:07;;;;;;;9.53;8.63;;;18.30;99.90;;;;;;5051271;28;20202;-78
2021/10/02 08:12:34;;;;;;;6.47;4.33;;;18.70;99.90;;;;;;5069017;28;20222;-78
2021/10/02 08:15:02;;;;;;;5.27;4.17;;;19.10;99.90;;;;;;5057926;28;20237;-78
2021/10/02 08:17:33;;;;;;;4.33;3.70;;;19.50;99.90;;;;;;5056273;28;20195;-78
2021/10/02 08:20:08;;;;;;;7.27;6.67;;;19.90;99.90;;;;;;5058750;28;20191;-78
2021/10/02 08:22:37;;;;;;;4.33;3.60;;;20.30;99.90;;;;;;5057861;28;20211;-78
2021/10/02 08:25:16;;;;;;;10.00;9.40;;;20.60;99.90;;;;;;5056507;28;20200;-78
2021/10/02 08:27:45;;;;;;;10.90;10.20;;;20.90;99.90;;;;;;5059810;28;20237;-78
2021/10/02 08:30:15;;;;;;;10.97;10.27;;;21.10;99.90;;;;;;5054837;28;20205;-78
2021/10/02 08:32:42;;;;;;;9.80;9.10;;;21.30;99.90;;;;;;5058981;28;20766;-79
2021/10/02 08:35:10;;;;;;;6.77;6.27;;;21.50;99.90;;;;;;5057244;28;20649;-78
2021/10/02 08:37:37;;;;;;;10.83;10.03;;;21.60;99.90;;;;;;5048749;28;20195;-80
2021/10/02 08:40:06;;;;;;;10.70;9.70;;;21.80;99.90;;;;;;5048318;28;20202;-79
2021/10/02 08:42:37;;;;;;;9.07;8.27;;;21.90;99.90;;;;;;5050824;28;20230;-78
2021/10/02 08:45:05;;;;;;;6.97;6.37;;;22.00;99.90;;;;;;5051044;28;20203;-76
2021/10/02 08:47:36;;;;;;;8.27;7.57;;;22.30;99.90;;;;;;5066941;28;20273;-77
2021/10/02 08:50:05;;;;;;;8.07;7.37;;;22.40;99.90;;;;;;5048435;28;20201;-77
2021/10/02 08:52:33;;;;;;;8.73;7.83;;;22.70;99.90;;;;;;5049353;28;20521;-78
2021/10/02 08:55:01;;;;;;;7.73;7.13;;;22.90;99.90;;;;;;5051481;28;20226;-78
2021/10/02 08:57:30;;;;;;;5.63;4.00;;;23.10;99.90;;;;;;5050035;28;20245;-78
2021/10/02 08:59:57;;;;;;;6.47;3.97;;;23.20;99.90;;;;;;5050080;28;20191;-78
2021/10/02 09:02:26;;;;;;;6.10;5.60;;;23.40;99.90;;;;;;5050616;28;20218;-78
2021/10/02 09:04:56;;;;;;;4.87;4.40;;;23.60;99.90;;;;;;5066701;28;20215;-78
2021/10/02 09:07:23;;;;;;;4.93;4.50;;;23.80;99.90;;;;;;5064832;28;20226;-78
2021/10/02 09:09:52;;;;;;;9.90;9.20;;;23.80;99.90;;;;;;5065306;28;20215;-78
2021/10/02 09:12:21;;;;;;;9.50;8.70;;;23.90;99.90;;;;;;5048461;28;20246;-78
2021/10/02 09:14:49;;;;;;;10.63;10.03;;;24.10;99.90;;;;;;5043898;28;20192;-78
2021/10/02 09:17:17;;;;;;;4.47;4.00;;;24.10;99.90;;;;;;5050732;28;20231;-76
2021/10/02 09:19:44;;;;;;;8.47;7.87;;;24.20;99.90;;;;;;5050491;28;20203;-79
2021/10/02 09:22:14;;;;;;;4.47;4.07;;;24.40;99.90;;;;;;5035729;28;20223;-76
2021/10/02 09:24:44;;;;;;;6.80;6.30;;;24.50;99.90;;;;;;5047262;28;20199;-78
2021/10/02 09:27:14;;;;;;;7.83;7.17;;;24.60;99.90;;;;;;5059560;28;20215;-79
2021/10/02 09:29:43;;;;;;;5.63;4.90;;;24.60;99.90;;;;;;5050847;28;20229;-79
2021/10/02 09:32:13;;;;;;;4.80;3.80;;;24.40;99.90;;;;;;5060453;28;20219;-79
2021/10/02 09:34:45;;;;;;;5.20;4.07;;;24.30;99.90;;;;;;5067534;28;20198;-79
2021/10/02 09:37:35;;;;;;;6.20;5.53;;;24.30;99.90;;;;;;5060942;28;20274;-78
2021/10/02 09:40:06;;;;;;;8.27;7.53;;;24.30;99.90;;;;;;5051029;28;20683;-78
2021/10/02 09:42:36;;;;;;;10.60;9.90;;;24.20;99.90;;;;;;5063176;28;20219;-79
2021/10/02 09:45:08;;;;;;;5.10;3.60;;;24.20;99.90;;;;;;5063633;28;20257;-78
2021/10/02 09:47:35;;;;;;;5.07;4.20;;;24.20;99.90;;;;;;5061085;28;20249;-78
2021/10/02 09:50:09;;;;;;;4.70;3.90;;;24.00;99.90;;;;;;5062285;28;20750;-79
2021/10/02 09:52:39;;;;;;;11.17;10.37;;;23.90;99.90;;;;;;5065635;28;20239;-78
2021/10/02 09:55:19;;;;;;;8.00;7.30;;;23.80;99.90;;;;;;5065390;28;20252;-78
2021/10/02 09:57:49;;;;;;;5.27;4.40;;;23.80;99.90;;;;;;5059554;28;20195;-79
2021/10/02 10:00:19;;;;;;;5.73;5.13;;;23.60;99.90;;;;;;5071274;22;20219;-75
2021/10/02 10:02:46;;;;;;;5.90;5.40;;;23.50;99.90;;;;;;5041115;28;20630;-75
2021/10/02 10:05:15;;;;;;;4.73;4.30;;;23.40;99.90;;;;;;5042115;28;20733;-76
2021/10/02 10:07:54;;;;;;;4.77;4.37;;;23.30;99.90;;;;;;5035350;28;20211;-76
2021/10/02 10:10:22;;;;;;;5.73;5.03;;;23.20;99.90;;;;;;5042975;28;20793;-76
2021/10/02 10:12:49;;;;;;;5.27;4.77;;;23.10;99.90;;;;;;5037498;28;20204;-75
2021/10/02 10:15:29;;;;;;;9.10;8.47;;;23.10;99.90;;;;;;5043020;28;20564;-76
2021/10/02 10:17:56;;;;;;;5.20;4.70;;;23.10;99.90;;;;;;5039267;28;20195;-75
2021/10/02 10:20:35;;;;;;;5.27;4.77;;;23.00;99.90;;;;;;5043140;28;20761;-76
2021/10/02 10:23:04;;;;;;;5.70;4.33;;;23.00;99.90;;;;;;5028643;28;20692;-76
2021/10/02 10:25:31;;;;;;;5.97;5.37;;;22.80;99.90;;;;;;5036853;28;20613;-75
2021/10/02 10:28:00;;;;;;;7.73;6.50;;;22.80;99.90;;;;;;5038285;28;20254;-75
2021/10/02 10:30:29;;;;;;;7.17;6.23;;;22.80;99.90;;;;;;5035479;28;20752;-76
2021/10/02 10:32:59;;;;;;;7.97;7.17;;;22.70;99.90;;;;;;5041627;28;20199;-76
2021/10/02 10:35:29;;;;;;;7.87;7.17;;;22.60;99.90;;;;;;5041550;28;20245;-76
2021/10/02 10:37:55;;;;;;;9.40;8.70;;;22.50;99.90;;;;;;5043470;28;20686;-75
2021/10/02 10:40:24;;;;;;;7.93;6.93;;;22.50;99.90;;;;;;5034385;28;20239;-76
2021/10/02 10:42:53;;;;;;;10.03;9.23;;;22.50;99.90;;;;;;5032249;28;20740;-75
2021/10/02 10:45:20;;;;;;;5.17;4.57;;;22.40;99.90;;;;;;5036975;28;20574;-76
2021/10/02 10:47:48;;;;;;;4.90;4.13;;;22.40;99.90;;;;;;5042512;28;20262;-75
2021/10/02 10:50:14;;;;;;;6.73;5.07;;;22.40;99.90;;;;;;5038913;28;20223;-76
2021/10/02 10:52:43;;;;;;;6.67;5.97;;;22.40;99.90;;;;;;5041978;28;20192;-76
2021/10/02 10:55:13;;;;;;;7.17;6.60;;;22.30;99.90;;;;;;5044604;28;20249;-76
2021/10/02 10:57:43;;;;;;;9.33;8.53;;;22.30;99.90;;;;;;5038587;28;20246;-75
2021/10/02 11:00:14;;;;;;;9.60;8.90;;;22.20;99.90;;;;;;5045803;28;20215;-76
2021/10/02 11:02:49;;;;;;;9.33;8.57;;;22.30;99.90;;;;;;5044266;28;20187;-75
2021/10/02 11:05:49;;;;;;;9.80;9.10;;;22.30;99.90;;;;;;5040525;28;20290;-75
2021/10/02 11:08:20;;;;;;;4.40;3.73;;;22.40;99.90;;;;;;5034070;28;20742;-76
2021/10/02 11:10:50;;;;;;;8.53;7.73;;;22.30;99.90;;;;;;5042237;28;20219;-76
2021/10/02 11:13:19;;;;;;;6.83;5.83;;;22.20;99.90;;;;;;5041103;28;20636;-75
2021/10/02 11:15:47;;;;;;;7.13;6.43;;;22.30;99.90;;;;;;5041764;28;20258;-76
2021/10/02 11:18:43;;;;;;;9.20;8.60;;;22.30;99.90;;;;;;5034138;28;20246;-78
2021/10/02 11:21:12;;;;;;;10.07;9.27;;;22.30;99.90;;;;;;5050879;28;20217;-79
2021/10/02 11:24:11;;;;;;;9.77;8.93;;;22.30;99.90;;;;;;5037736;28;20624;-81
2021/10/02 11:26:48;;;;;;;9.07;8.37;;;22.20;99.90;;;;;;5034416;28;20573;-80
2021/10/02 11:29:19;;;;;;;4.23;3.57;;;22.30;99.90;;;;;;5031335;28;20223;-79
2021/10/02 11:31:46;;;;;;;7.93;3.63;;;22.20;99.90;;;;;;5034048;28;20466;-77
2021/10/02 11:34:18;;;;;;;4.60;3.80;;;22.20;99.90;;;;;;5043689;28;20195;-77
2021/10/02 11:37:01;;;;;;;4.07;3.50;;;22.10;99.90;;;;;;5030960;28;20785;-80
2021/10/02 11:39:33;;;;;;;4.97;3.80;;;22.20;99.90;;;;;;5032609;28;20657;-79
2021/10/02 11:42:10;;;;;;;3.90;3.50;;;22.30;99.90;;;;;;5036375;28;20665;-78
2021/10/02 11:44:48;;;;;;;4.80;3.83;;;22.40;99.90;;;;;;5031682;28;20286;-77
2021/10/02 11:47:33;;;;;;;4.67;3.67;;;22.30;99.90;;;;;;5032427;28;20273;-78
2021/10/02 11:50:31;;;;;;;4.30;3.27;;;22.30;99.90;;;;;;5039875;28;20224;-78
2021/10/02 11:53:20;;;;;;;3.93;3.40;;;22.30;99.90;;;;;;5038332;28;20265;-78
2021/10/02 11:55:51;;;;;;;3.67;3.33;;;22.40;99.90;;;;;;5032106;28;20200;-77
2021/10/02 11:58:18;;;;;;;4.27;3.47;;;22.40;99.90;;;;;;5055437;28;20246;-80
2021/10/02 12:00:52;;;;;;;3.90;3.47;;;22.40;99.90;;;;;;5039375;28;20223;-78
2021/10/02 12:03:24;;;;;;;3.47;3.17;;;22.40;99.90;;;;;;5026324;28;20288;-79
2021/10/02 12:05:52;;;;;;;3.83;3.43;;;22.40;99.90;;;;;;5028059;28;20196;-77
2021/10/02 12:08:21;;;;;;;3.07;2.80;;;22.40;99.90;;;;;;5029195;28;20290;-77
2021/10/02 12:10:53;;;;;;;3.47;3.17;;;22.40;99.90;;;;;;5032194;28;20704;-78
2021/10/02 12:13:21;;;;;;;3.57;3.27;;;22.50;99.90;;;;;;5023297;28;20489;-78
2021/10/02 12:15:57;;;;;;;3.70;3.20;;;22.50;99.90;;;;;;5028007;28;20618;-79
2021/10/02 12:18:24;;;;;;;4.47;3.20;;;22.60;99.90;;;;;;5026998;28;20743;-80
2021/10/02 12:20:51;;;;;;;3.73;3.33;;;22.60;99.90;;;;;;5028867;28;20215;-79
2021/10/02 12:23:18;;;;;;;4.10;3.10;;;22.70;99.90;;;;;;5024688;28;20732;-80
2021/10/02 12:25:44;;;;;;;4.93;3.30;;;22.70;99.90;;;;;;5030811;28;21560;-79
2021/10/02 12:28:22;;;;;;;5.93;5.43;;;22.70;99.90;;;;;;5032467;28;20200;-78
2021/10/02 12:30:53;;;;;;;5.90;5.40;;;22.60;99.90;;;;;;5030047;28;20281;-78
2021/10/02 12:33:22;;;;;;;3.27;2.97;;;22.60;99.90;;;;;;5030390;28;20200;-78
2021/10/02 12:35:49;;;;;;;3.90;3.00;;;22.60;99.90;;;;;;5032517;28;20192;-77
2021/10/02 12:38:16;;;;;;;4.73;3.10;;;22.70;99.90;;;;;;5031389;28;20275;-77
2021/10/02 12:40:52;;;;;;;3.67;3.27;;;22.70;99.90;;;;;;5041015;28;20220;-77
2021/10/02 12:43:19;;;;;;;4.17;3.33;;;22.70;99.90;;;;;;5043527;28;20203;-77
2021/10/02 12:45:46;;;;;;;3.67;3.27;;;22.80;99.90;;;;;;5041888;28;20541;-78
2021/10/02 12:48:15;;;;;;;3.50;3.20;;;22.80;99.90;;;;;;5041033;28;20191;-78
2021/10/02 12:50:44;;;;;;;4.10;3.53;;;22.90;99.90;;;;;;5032236;28;20633;-77
2021/10/02 12:53:13;;;;;;;4.60;3.27;;;23.00;99.90;;;;;;5034010;28;20615;-78
2021/10/02 12:55:40;;;;;;;3.40;3.10;;;23.00;99.90;;;;;;5038790;28;20199;-78
2021/10/02 12:58:13;;;;;;;3.77;3.17;;;23.00;99.90;;;;;;5033306;28;20200;-77
2021/10/02 13:00:40;;;;;;;5.77;5.37;;;23.10;99.90;;;;;;5041717;28;20255;-78
2021/10/02 13:03:07;;;;;;;3.57;3.00;;;23.10;99.90;;;;;;5031378;28;20194;-77
2021/10/02 13:05:37;;;;;;;4.60;3.60;;;23.20;99.90;;;;;;5032156;28;20237;-78
2021/10/02 13:08:05;;;;;;;3.33;3.03;;;23.30;99.90;;;;;;5030082;28;20664;-79
2021/10/02 13:10:37;;;;;;;4.53;3.50;;;23.40;99.90;;;;;;5040067;28;20237;-79
2021/10/02 13:13:05;;;;;;;4.17;3.47;;;23.50;99.90;;;;;;5032073;28;20665;-78
2021/10/02 13:15:35;;;;;;;6.83;6.23;;;23.60;99.90;;;;;;5043527;28;20199;-79
2021/10/02 13:18:07;;;;;;;7.30;6.70;;;23.70;99.90;;;;;;5034631;28;20191;-78
2021/10/02 13:20:37;;;;;;;7.97;7.37;;;23.70;99.90;;;;;;5043682;28;20214;-77
2021/10/02 13:23:10;;;;;;;4.23;3.83;;;23.60;99.90;;;;;;5036367;28;20290;-77
2021/10/02 13:25:42;;;;;;;4.17;3.20;;;23.50;99.90;;;;;;5033924;28;20722;-77
2021/10/02 13:28:20;;;;;;;4.33;3.47;;;23.40;99.90;;;;;;5038489;28;20260;-78
2021/10/02 13:30:47;;;;;;;3.80;3.40;;;23.40;99.90;;;;;;5032202;28;20219;-78
2021/10/02 13:33:15;;;;;;;3.67;3.10;;;23.30;99.90;;;;;;5030250;28;20733;-78
2021/10/02 13:35:49;;;;;;;6.60;6.10;;;23.30;99.90;;;;;;5034388;28;20200;-76
2021/10/02 13:38:17;;;;;;;4.30;3.90;;;23.20;99.90;;;;;;5039683;28;20635;-78
2021/10/02 13:40:52;;;;;;;6.10;4.33;;;23.30;99.90;;;;;;5041516;28;20227;-77
2021/10/02 13:43:19;;;;;;;4.67;4.27;;;23.20;99.90;;;;;;5036109;28;20237;-78
2021/10/02 13:45:48;;;;;;;9.90;9.10;;;23.20;99.90;;;;;;5039955;28;20207;-77